Thamesville, Canada
Current Conditions -  °F | °C
As of 6:00 PM on Saturday 25 Oct 2014 (Local Time) from CYCK Reporting Station
Clear Clear  
Wind Chill: 63°   Ceiling: Unl
Heat Index: 63°   Visibility: 9mi
Dew Point: 46°   Wind: 10mph
Humidity: 55%   Direction: 280°W
Pressure: 29.71"   Gusts: 17mph
Location:  42.55°N, 81.97°W
Report Text: CYCK 252200Z AUTO 28009G15KT 9SM CLR 17/08 A2971 RMK SLP061 DENSITY ALT 1200FT
Loading
Personal Weather Stations






























Interactive Weather Map
Tropical Storm Tracking
New forecast layout! Learn more

10-Day Weather Forecast

Advertisements
Track Severe Weather on mobile